메인 페이지
METAR-TAF:

METAR-TAF

공항 :

Naval Air Station Whiting Field North

밀튼, 플로리다, 미국

위도: 30-44-00N, 경도: 087-01-00W, 고도: 60m

현재 날씨관측

예보는 30분 전, 06:56시(UTC)에 발표되었습니다.
3kt
온도 22°C
습도 94%
기압 1014 hPa
시정: 16.1km
고도 2200ft 상공 구름 조금
고도 2900ft 상공 구름 보통
고도 3700ft 상공 구름 많음

METAR: KNSE 220656Z AUTO 18003KT 10SM FEW022 SCT029 BKN037 22/21 A2993 RMK AO2 RAE04 SLP119 T02170211 PNO $

시각: 02:26 (07:26 UTC)

예보

예보 대상 시간: 22일 07시부터 23일 07시까지 (UTC)
남서8kt
시정 10km 이상
고도 500ft 상공 구름 조금
고도 2500ft 상공 구름 조금
고도 3000ft 상공 구름 보통
고도 3500ft 상공 구름 많음
시계 내 소나기
일시적
22일 10시부터 22일 12시까지 (UTC)
여러 방향의 바람 6kt
시정: 8000m
고도 500ft 상공 구름 많음
고도 1500ft 상공 흐림
약한소나기, 박무
전환 중
22일 12시부터 22일 14시까지 (UTC)
12kt, 순간 최대 풍속 20kt
시정 10km 이상
고도 1500ft 상공 구름 보통
고도 5000ft 상공 구름 많음
고도 25000ft 상공 구름 많음
22일 1700시부터 (UTC)
북북서14kt, 순간 최대 풍속 22kt
시정: 2211m
고도 8000ft 상공 구름 보통
고도 25000ft 상공 구름 보통

TAF: KNSE 2207/2307 22008KT 9999 VCSH FEW005 FEW025 SCT030 BKN035 QNH2985INS TEMPO 2210/2212 VRB06KT 8000 -SHRA BR BKN005 OVC015 BECMG 2212/2214 35012G20KT 9999 SCT015 BKN050 BKN250 QNH3001INS FM221700 34014G22KT 9999 SCT080 SCT250 QNH2999INS AUTOMATED SENSOR METWATCH 2207 TIL 2211 T20/2212Z T25/2221Z FN00194

4,000개 이상의 공항 관측 자료 및 예보 (METAR 및 TAF 보고).

지도상에서 검색 가능한 기상관측소가 노란 점과 빨간 점으로 표시되어 있습니다.

기상관측소 명을 보려면 표시 위로 마우스를 이동하세요.

날씨 관측과 예보를 보려면 클릭하세요.

지도 변경 : 확대하려면 엑스 표시가 있는 녹색 버튼, 축소하려면 빼기 표시가 있는 녹색 버튼, 다음 페이지의 지도를 보려면 녹색 화살표를 클릭하세요.


METAR-TAF: